createdAt,value
2017-11-08T00:00:15.354Z,94.80
2017-11-08T00:02:42.796Z,94.60
2017-11-08T00:05:10.223Z,94.50
2017-11-08T00:07:37.705Z,94.70
2017-11-08T00:10:05.157Z,94.70
2017-11-08T00:12:33.355Z,94.60
2017-11-08T00:15:13.550Z,94.60
2017-11-08T00:17:41.001Z,94.60
2017-11-08T00:20:08.495Z,94.70
2017-11-08T00:22:36.720Z,94.80
2017-11-08T00:25:04.165Z,94.80
2017-11-08T00:27:31.601Z,94.70
2017-11-08T00:29:59.080Z,94.50
2017-11-08T00:32:27.272Z,94.50
2017-11-08T00:34:55.481Z,94.50
2017-11-08T00:37:22.912Z,94.50
2017-11-08T00:39:50.365Z,94.20
2017-11-08T00:42:17.823Z,94.30
2017-11-08T00:44:45.237Z,94.50
2017-11-08T00:47:12.703Z,94.40
2017-11-08T00:49:40.168Z,94.30
2017-11-08T00:52:08.396Z,94.30
2017-11-08T00:54:35.917Z,94.30
2017-11-08T00:57:03.369Z,94.50
2017-11-08T00:59:30.821Z,94.20
2017-11-08T01:01:58.315Z,94.30
2017-11-08T01:04:25.752Z,94.20
2017-11-08T01:06:53.220Z,94.50
2017-11-08T01:09:20.675Z,94.50
2017-11-08T01:11:48.117Z,94.40
2017-11-08T01:14:15.564Z,94.60
2017-11-08T01:16:43.032Z,94.90
2017-11-08T01:19:10.489Z,94.40
2017-11-08T01:21:37.924Z,94.60
2017-11-08T01:24:05.369Z,95.00
2017-11-08T01:26:32.853Z,94.80
2017-11-08T01:29:00.304Z,94.70
2017-11-08T01:31:27.762Z,94.30
2017-11-08T01:33:55.200Z,94.40
2017-11-08T01:36:22.664Z,94.40
2017-11-08T01:38:50.101Z,94.70
2017-11-08T01:41:24.369Z,94.40
2017-11-08T01:43:54.249Z,94.40
2017-11-08T01:46:21.720Z,94.60
2017-11-08T01:48:49.180Z,94.80
2017-11-08T01:51:16.641Z,94.70
2017-11-08T01:53:44.073Z,95.30
2017-11-08T01:56:11.601Z,94.90
2017-11-08T01:58:39.070Z,94.40
2017-11-08T02:01:06.513Z,94.60
2017-11-08T02:03:33.961Z,94.60
2017-11-08T02:06:01.419Z,94.50
2017-11-08T02:08:28.858Z,94.60
2017-11-08T02:10:56.331Z,94.60
2017-11-08T02:13:23.787Z,94.80
2017-11-08T02:15:51.265Z,94.70
2017-11-08T02:18:21.528Z,94.60
2017-11-08T02:20:48.984Z,95.00
2017-11-08T02:23:16.424Z,95.00
2017-11-08T02:25:43.889Z,94.50
2017-11-08T02:28:11.325Z,94.80
2017-11-08T02:30:39.641Z,94.80
2017-11-08T02:33:07.102Z,94.80
2017-11-08T02:35:34.582Z,94.90
2017-11-08T02:38:02.044Z,94.30
2017-11-08T02:40:29.517Z,94.30
2017-11-08T02:42:56.959Z,94.40
2017-11-08T02:45:30.054Z,94.50
2017-11-08T02:47:57.500Z,94.80
2017-11-08T02:50:24.948Z,94.70
2017-11-08T02:52:52.403Z,94.80
2017-11-08T02:55:19.864Z,94.60
2017-11-08T02:57:47.314Z,94.70
2017-11-08T03:00:14.772Z,94.40
2017-11-08T03:02:47.951Z,94.60
2017-11-08T03:05:18.334Z,94.60
2017-11-08T03:07:45.785Z,94.40
2017-11-08T03:10:13.234Z,94.70
2017-11-08T03:12:40.667Z,94.50
2017-11-08T03:15:08.114Z,94.50
2017-11-08T03:17:35.574Z,94.60
2017-11-08T03:20:03.032Z,94.60
2017-11-08T03:22:30.522Z,94.90
2017-11-08T03:24:57.975Z,94.40
2017-11-08T03:27:25.424Z,94.40
2017-11-08T03:29:52.871Z,94.40
2017-11-08T03:32:26.258Z,94.20
2017-11-08T03:34:53.708Z,94.20
2017-11-08T03:37:21.153Z,94.20
2017-11-08T03:39:48.617Z,94.40
2017-11-08T03:42:16.078Z,94.40
2017-11-08T03:44:43.550Z,94.30
2017-11-08T03:47:11.049Z,94.50
2017-11-08T03:49:39.285Z,94.30
2017-11-08T03:52:06.750Z,94.30
2017-11-08T03:54:34.221Z,94.20
2017-11-08T03:57:01.675Z,94.40
2017-11-08T03:59:29.139Z,94.50
2017-11-08T04:01:56.591Z,94.30
2017-11-08T04:04:24.042Z,94.50
2017-11-08T04:06:51.477Z,95.00
2017-11-08T04:09:18.929Z,95.40
2017-11-08T04:11:46.392Z,95.50
2017-11-08T04:14:13.838Z,95.80
2017-11-08T04:16:41.291Z,95.90
2017-11-08T04:19:08.736Z,96.10
2017-11-08T04:21:36.173Z,96.20
2017-11-08T04:24:04.412Z,96.50
2017-11-08T04:26:31.875Z,96.50
2017-11-08T04:28:59.328Z,96.30
2017-11-08T04:31:26.790Z,96.00
2017-11-08T04:33:54.249Z,96.60
2017-11-08T04:36:21.712Z,96.60
2017-11-08T04:38:49.154Z,96.90
2017-11-08T04:41:16.624Z,97.00
2017-11-08T04:43:44.075Z,97.00
2017-11-08T04:46:11.551Z,97.10
2017-11-08T04:48:43.933Z,97.10
2017-11-08T04:51:12.164Z,97.40
2017-11-08T04:53:39.699Z,97.20
2017-11-08T04:56:07.156Z,97.20
2017-11-08T04:58:34.603Z,97.30
2017-11-08T05:01:02.049Z,97.30
2017-11-08T05:03:30.247Z,97.30
2017-11-08T05:05:57.733Z,97.30
2017-11-08T05:08:25.177Z,97.30
2017-11-08T05:10:52.621Z,97.40
2017-11-08T05:13:20.063Z,97.40
2017-11-08T05:15:47.506Z,97.50
2017-11-08T05:18:15.796Z,97.60
2017-11-08T05:20:43.228Z,97.60
2017-11-08T05:23:14.817Z,97.90
2017-11-08T05:25:42.246Z,97.60
2017-11-08T05:28:10.462Z,97.50
2017-11-08T05:30:37.912Z,97.50
2017-11-08T05:33:05.353Z,97.20
2017-11-08T05:35:32.845Z,97.70
2017-11-08T05:38:00.300Z,97.90
2017-11-08T05:40:27.749Z,98.10
2017-11-08T05:42:55.213Z,98.40
2017-11-08T05:45:22.746Z,98.40
2017-11-08T05:47:50.211Z,98.40
2017-11-08T05:50:17.745Z,98.40
2017-11-08T05:52:45.958Z,98.50
2017-11-08T05:55:13.419Z,98.40
2017-11-08T05:57:40.872Z,98.30
2017-11-08T06:00:08.327Z,98.30
2017-11-08T06:02:35.770Z,98.20
2017-11-08T06:05:03.416Z,98.50
2017-11-08T06:07:31.644Z,98.40
2017-11-08T06:09:59.074Z,98.40
2017-11-08T06:15:26.585Z,98.40
2017-11-08T06:17:54.036Z,98.40
2017-11-08T06:20:21.472Z,98.40
2017-11-08T06:22:49.013Z,98.50
2017-11-08T06:25:16.466Z,98.60
2017-11-08T06:27:43.900Z,98.70
2017-11-08T06:30:11.337Z,98.70
2017-11-08T06:32:38.805Z,98.60
2017-11-08T06:35:06.245Z,98.60
2017-11-08T06:37:33.709Z,98.50
2017-11-08T06:40:01.149Z,98.60
2017-11-08T06:42:28.602Z,98.60
2017-11-08T06:44:56.046Z,98.50
2017-11-08T06:47:23.510Z,98.60
2017-11-08T06:49:50.984Z,98.60
2017-11-08T06:52:18.426Z,98.80
2017-11-08T06:54:45.870Z,99.00
2017-11-08T06:57:13.316Z,99.00
2017-11-08T06:59:40.765Z,98.80
2017-11-08T07:02:08.201Z,98.70
2017-11-08T07:04:36.405Z,99.10
2017-11-08T07:07:03.842Z,99.10
2017-11-08T07:09:32.053Z,99.00
2017-11-08T07:11:59.513Z,99.30
2017-11-08T07:14:26.934Z,98.90
2017-11-08T07:17:00.007Z,98.90
2017-11-08T07:19:27.446Z,98.90
2017-11-08T07:22:07.773Z,98.90
2017-11-08T07:24:35.229Z,98.90
2017-11-08T07:27:02.683Z,98.80
2017-11-08T07:29:30.139Z,98.80
2017-11-08T07:31:57.574Z,98.80
2017-11-08T07:34:25.777Z,98.70
2017-11-08T07:36:53.229Z,98.70
2017-11-08T07:39:20.675Z,98.70
2017-11-08T07:41:48.123Z,98.80
2017-11-08T07:44:15.570Z,98.90
2017-11-08T07:46:43.812Z,98.90
2017-11-08T07:49:11.239Z,98.90
2017-11-08T07:51:38.670Z,98.80
2017-11-08T07:54:11.921Z,98.90
2017-11-08T07:56:39.381Z,98.80
2017-11-08T07:59:06.818Z,98.90
2017-11-08T08:01:34.278Z,98.90
2017-11-08T08:04:01.745Z,99.10
2017-11-08T08:06:29.186Z,99.10
2017-11-08T08:08:56.645Z,99.10
2017-11-08T08:11:36.705Z,99.10
2017-11-08T08:14:04.163Z,99.20
2017-11-08T08:16:31.611Z,99.10
2017-11-08T08:18:59.067Z,99.10
2017-11-08T08:21:26.496Z,99.00
2017-11-08T08:23:53.950Z,99.10
2017-11-08T08:26:21.391Z,98.90
2017-11-08T08:28:49.623Z,98.90
2017-11-08T08:31:17.067Z,98.90
2017-11-08T08:33:44.517Z,99.00
2017-11-08T08:36:12.961Z,98.90
2017-11-08T08:38:41.179Z,98.90
2017-11-08T08:41:08.629Z,98.90
2017-11-08T08:43:36.088Z,98.80
2017-11-08T08:46:03.522Z,98.90
2017-11-08T08:48:30.976Z,98.90
2017-11-08T08:50:59.182Z,98.90
2017-11-08T08:53:26.637Z,98.90
2017-11-08T08:55:54.097Z,98.90
2017-11-08T08:58:21.549Z,98.80
2017-11-08T09:00:49.017Z,98.70
2017-11-08T09:03:21.168Z,98.70
2017-11-08T09:05:48.649Z,98.70
2017-11-08T09:08:16.097Z,98.70
2017-11-08T09:10:43.557Z,98.70
2017-11-08T09:13:11.005Z,98.70
2017-11-08T09:15:38.455Z,98.70
2017-11-08T09:18:05.989Z,98.70
2017-11-08T09:20:33.441Z,98.70
2017-11-08T09:23:01.662Z,98.80
2017-11-08T09:25:30.898Z,98.80
2017-11-08T09:27:58.338Z,98.80
2017-11-08T09:30:25.794Z,98.80
2017-11-08T09:32:53.241Z,98.80
2017-11-08T09:35:23.453Z,98.70
2017-11-08T09:40:46.548Z,98.60
2017-11-08T09:43:19.822Z,98.70
2017-11-08T09:45:47.271Z,98.70
2017-11-08T09:48:14.745Z,98.70
2017-11-08T09:50:42.164Z,98.80
2017-11-08T09:53:17.161Z,98.80
2017-11-08T09:55:44.602Z,98.90
2017-11-08T09:58:12.050Z,99.00
2017-11-08T10:00:42.620Z,98.90
2017-11-08T10:03:10.834Z,99.10
2017-11-08T10:05:38.300Z,99.00
2017-11-08T10:08:05.730Z,99.10
2017-11-08T10:10:33.198Z,99.00
2017-11-08T10:13:06.262Z,99.10
2017-11-08T10:15:34.489Z,99.10
2017-11-08T10:18:02.034Z,99.00
2017-11-08T10:20:29.566Z,99.00
2017-11-08T10:23:00.837Z,99.10
2017-11-08T10:25:31.548Z,99.10
2017-11-08T10:27:59.821Z,99.10
2017-11-08T10:30:28.336Z,99.00
2017-11-08T10:32:55.874Z,98.90
2017-11-08T10:35:24.170Z,99.00
2017-11-08T10:37:51.718Z,99.00
2017-11-08T10:40:19.170Z,98.90
2017-11-08T10:42:46.573Z,98.80
2017-11-08T10:45:14.798Z,99.00
2017-11-08T10:47:42.259Z,99.00
2017-11-08T10:50:09.703Z,99.00
2017-11-08T10:52:40.084Z,99.00
2017-11-08T10:55:08.289Z,99.10
2017-11-08T10:57:35.766Z,99.00
2017-11-08T11:03:06.852Z,99.00
2017-11-08T11:05:34.316Z,99.20
2017-11-08T11:08:01.767Z,98.80
2017-11-08T11:10:29.249Z,98.90
2017-11-08T11:12:56.719Z,99.00
2017-11-08T11:15:24.925Z,98.90
2017-11-08T11:17:52.394Z,98.90
2017-11-08T11:20:19.850Z,98.90
2017-11-08T11:22:47.290Z,98.90
2017-11-08T11:25:16.674Z,98.70
2017-11-08T11:27:44.928Z,98.80
2017-11-08T11:30:12.385Z,98.80
2017-11-08T11:32:46.564Z,99.10
2017-11-08T11:35:14.007Z,98.80
2017-11-08T11:37:47.308Z,98.80
2017-11-08T11:40:14.806Z,98.40
2017-11-08T11:42:42.243Z,98.40
2017-11-08T11:45:09.699Z,98.20
2017-11-08T11:47:37.138Z,99.00
2017-11-08T11:50:04.684Z,98.80
2017-11-08T11:52:32.110Z,99.10
2017-11-08T11:55:00.335Z,99.10
2017-11-08T11:57:27.803Z,99.10
2017-11-08T11:59:55.292Z,99.40
2017-11-08T12:02:22.742Z,99.50
2017-11-08T12:04:50.215Z,99.60
2017-11-08T12:07:17.676Z,99.60
2017-11-08T12:09:45.126Z,99.40
2017-11-08T12:12:12.585Z,99.90
2017-11-08T12:14:40.031Z,99.60
2017-11-08T12:17:07.508Z,99.90
2017-11-08T12:19:37.870Z,99.90
2017-11-08T12:22:05.344Z,99.80
2017-11-08T12:24:32.778Z,99.90
2017-11-08T12:27:06.017Z,99.90
2017-11-08T12:29:36.059Z,99.90
2017-11-08T12:32:03.509Z,99.90
2017-11-08T12:34:30.948Z,99.90
2017-11-08T12:36:58.413Z,99.90
2017-11-08T12:39:33.551Z,99.90
2017-11-08T12:42:26.642Z,99.30
2017-11-08T12:45:09.066Z,98.70
2017-11-08T12:47:37.988Z,98.70
2017-11-08T12:50:05.452Z,98.60
2017-11-08T12:52:32.942Z,98.70
2017-11-08T12:55:05.011Z,98.80
2017-11-08T12:57:37.087Z,99.20
2017-11-08T13:00:04.588Z,98.80
2017-11-08T13:02:32.045Z,98.90
2017-11-08T13:04:59.494Z,98.60
2017-11-08T13:07:53.691Z,98.50
2017-11-08T13:10:30.676Z,98.60
2017-11-08T13:12:58.183Z,98.80
2017-11-08T13:15:26.406Z,98.80
2017-11-08T13:17:53.864Z,98.70
2017-11-08T13:20:21.334Z,98.60
2017-11-08T13:23:04.703Z,98.40
2017-11-08T13:25:33.168Z,98.00
2017-11-08T13:28:00.681Z,98.00
2017-11-08T13:30:32.073Z,98.00
2017-11-08T13:32:59.784Z,98.00
2017-11-08T13:35:27.234Z,98.30
2017-11-08T13:37:54.796Z,98.10
2017-11-08T13:40:22.268Z,98.20
2017-11-08T13:42:49.731Z,98.00
2017-11-08T13:45:17.173Z,97.80
2017-11-08T13:48:04.430Z,97.80
2017-11-08T13:50:31.888Z,97.90
2017-11-08T13:52:59.336Z,97.90
2017-11-08T13:55:26.791Z,97.90
2017-11-08T13:57:54.261Z,97.90
2017-11-08T14:00:21.747Z,98.00
2017-11-08T14:05:52.318Z,98.30
2017-11-08T14:08:19.782Z,98.10
2017-11-08T14:10:47.257Z,98.10
2017-11-08T14:13:28.427Z,98.20
2017-11-08T14:16:02.575Z,98.40
2017-11-08T14:18:30.031Z,98.40
2017-11-08T14:20:57.487Z,98.40
2017-11-08T14:23:24.944Z,98.40
2017-11-08T14:25:52.398Z,98.40
2017-11-08T14:28:25.049Z,98.20
2017-11-08T14:30:52.494Z,98.40
2017-11-08T14:33:19.930Z,98.20
2017-11-08T14:35:48.144Z,98.30
2017-11-08T14:38:15.604Z,98.30
2017-11-08T14:40:43.802Z,98.40
2017-11-08T14:43:11.248Z,98.40
2017-11-08T14:45:38.686Z,98.40
2017-11-08T14:48:06.138Z,98.40
2017-11-08T14:50:33.626Z,98.40
2017-11-08T14:53:06.604Z,98.40
2017-11-08T14:55:34.135Z,98.40
2017-11-08T14:58:02.349Z,98.50
2017-11-08T15:00:30.751Z,98.50
2017-11-08T15:02:58.206Z,98.40
2017-11-08T15:05:25.690Z,98.30
2017-11-08T15:07:53.168Z,98.30
2017-11-08T15:10:21.370Z,98.40
2017-11-08T15:12:48.823Z,98.40
2017-11-08T15:15:22.959Z,98.30
2017-11-08T15:17:50.448Z,98.20
2017-11-08T15:20:23.829Z,98.10
2017-11-08T15:22:51.285Z,98.10
2017-11-08T15:25:18.743Z,98.10
2017-11-08T15:27:46.188Z,98.20
2017-11-08T15:30:19.363Z,98.00
2017-11-08T15:32:46.820Z,97.90
2017-11-08T15:35:15.293Z,98.00
2017-11-08T15:37:42.767Z,98.10
2017-11-08T15:40:10.289Z,97.70
2017-11-08T15:42:38.534Z,98.10
2017-11-08T15:45:05.995Z,98.10
2017-11-08T15:47:48.182Z,98.30
2017-11-08T15:50:15.658Z,98.30
2017-11-08T15:52:43.094Z,98.30
2017-11-08T15:55:10.546Z,98.40
2017-11-08T15:57:38.021Z,98.40
2017-11-08T16:00:05.492Z,98.40
2017-11-08T16:02:32.916Z,98.40
2017-11-08T16:05:00.382Z,98.30
2017-11-08T16:07:27.830Z,98.40
2017-11-08T16:09:55.294Z,98.40
2017-11-08T16:12:22.759Z,98.40
2017-11-08T16:14:50.231Z,98.60
2017-11-08T16:17:17.722Z,98.60
2017-11-08T16:19:45.203Z,98.60
2017-11-08T16:22:13.786Z,98.50
2017-11-08T16:24:45.866Z,99.10
2017-11-08T16:27:27.869Z,99.10
2017-11-08T16:29:55.335Z,99.20
2017-11-08T16:32:25.384Z,99.20
2017-11-08T16:34:57.166Z,99.50
2017-11-08T16:37:30.048Z,99.40
2017-11-08T16:39:57.511Z,99.40
2017-11-08T16:42:24.943Z,99.50
2017-11-08T16:44:53.174Z,98.90
2017-11-08T16:47:23.968Z,99.40
2017-11-08T16:49:52.364Z,98.70
2017-11-08T16:52:19.816Z,99.30
2017-11-08T16:54:47.272Z,98.90
2017-11-08T16:57:14.747Z,98.80
2017-11-08T16:59:42.185Z,98.80
2017-11-08T17:02:09.654Z,98.80
2017-11-08T17:04:37.111Z,98.80
2017-11-08T17:07:04.542Z,98.90
2017-11-08T17:09:56.562Z,98.80
2017-11-08T17:12:24.819Z,98.90
2017-11-08T17:14:52.262Z,99.30
2017-11-08T17:17:19.714Z,98.90
2017-11-08T17:19:49.208Z,98.80
2017-11-08T17:22:16.648Z,98.80
2017-11-08T17:24:44.113Z,99.20
2017-11-08T17:27:11.593Z,99.30
2017-11-08T17:29:39.051Z,99.40
2017-11-08T17:32:14.933Z,98.90
2017-11-08T17:34:43.167Z,98.80
2017-11-08T17:37:10.612Z,98.80
2017-11-08T17:39:38.070Z,98.80
2017-11-08T17:42:05.510Z,98.70
2017-11-08T17:44:32.958Z,98.80
2017-11-08T17:47:00.396Z,98.80
2017-11-08T17:49:28.614Z,98.90
2017-11-08T17:51:56.050Z,98.90
2017-11-08T17:54:23.490Z,98.80
2017-11-08T17:56:51.747Z,98.80
2017-11-08T17:59:20.296Z,98.70
2017-11-08T18:01:47.747Z,98.70
2017-11-08T18:04:15.185Z,98.70
2017-11-08T18:06:42.624Z,98.60
2017-11-08T18:09:10.838Z,98.70
2017-11-08T18:11:38.286Z,99.00
2017-11-08T18:14:09.618Z,98.70
2017-11-08T18:16:39.003Z,98.60
2017-11-08T18:19:14.900Z,98.70
2017-11-08T18:21:43.359Z,98.70
2017-11-08T18:24:10.813Z,98.70
2017-11-08T18:26:38.425Z,98.70
2017-11-08T18:29:10.435Z,98.70
2017-11-08T18:31:37.886Z,98.60
2017-11-08T18:37:00.148Z,98.70
2017-11-08T18:39:27.614Z,98.60
2017-11-08T18:41:55.060Z,98.60
2017-11-08T18:44:22.523Z,98.60
2017-11-08T18:46:50.019Z,98.60
2017-11-08T18:49:17.474Z,98.50
2017-11-08T18:51:44.931Z,98.50
2017-11-08T18:54:12.385Z,98.40
2017-11-08T18:56:39.851Z,98.50
2017-11-08T18:59:13.778Z,98.50
2017-11-08T19:01:41.274Z,98.50
2017-11-08T19:04:08.756Z,98.60
2017-11-08T19:06:36.292Z,98.60
2017-11-08T19:09:03.779Z,98.60
2017-11-08T19:11:31.221Z,98.70
2017-11-08T19:14:03.506Z,98.80
2017-11-08T19:16:30.995Z,98.70
2017-11-08T19:19:04.734Z,98.70
2017-11-08T19:21:33.002Z,98.80
2017-11-08T19:24:01.265Z,98.70
2017-11-08T19:26:28.815Z,98.70
2017-11-08T19:29:00.208Z,99.00
2017-11-08T19:31:28.652Z,98.70
2017-11-08T19:33:56.107Z,98.70
2017-11-08T19:36:23.643Z,98.70
2017-11-08T19:38:51.137Z,98.70
2017-11-08T19:41:18.589Z,98.70
2017-11-08T19:43:46.050Z,98.80
2017-11-08T19:46:14.268Z,98.90
2017-11-08T19:48:41.707Z,98.80
2017-11-08T19:51:09.411Z,98.80
2017-11-08T19:53:36.844Z,98.70
2017-11-08T19:56:04.286Z,98.70
2017-11-08T19:58:31.727Z,98.70
2017-11-08T20:00:59.161Z,98.80
2017-11-08T20:03:28.686Z,98.70
2017-11-08T20:05:56.898Z,98.60
2017-11-08T20:08:25.450Z,98.60
2017-11-08T20:10:52.893Z,98.60
2017-11-08T20:13:20.322Z,98.60
2017-11-08T20:15:47.771Z,98.60
2017-11-08T20:18:15.211Z,98.60
2017-11-08T20:20:49.263Z,98.70
2017-11-08T20:23:23.885Z,98.60
2017-11-08T20:25:55.770Z,98.40
2017-11-08T20:28:24.011Z,99.20
2017-11-08T20:30:51.593Z,99.20
2017-11-08T20:33:19.051Z,99.20
2017-11-08T20:35:47.260Z,99.40
2017-11-08T20:38:14.697Z,99.40
2017-11-08T20:40:42.146Z,99.30
2017-11-08T20:43:10.354Z,99.20
2017-11-08T20:45:37.781Z,99.20
2017-11-08T20:48:06.050Z,99.20
2017-11-08T20:50:34.313Z,99.20
2017-11-08T20:53:01.751Z,99.10
2017-11-08T20:55:29.201Z,99.10
2017-11-08T20:57:56.670Z,99.20
2017-11-08T21:00:24.119Z,99.20
2017-11-08T21:02:51.636Z,99.40
2017-11-08T21:05:19.115Z,99.50
2017-11-08T21:07:46.547Z,99.50
2017-11-08T21:10:13.986Z,99.50
2017-11-08T21:12:42.192Z,99.50
2017-11-08T21:15:10.657Z,99.40
2017-11-08T21:17:38.095Z,99.40
2017-11-08T21:20:06.316Z,99.60
2017-11-08T21:22:33.773Z,99.40
2017-11-08T21:25:01.219Z,99.40
2017-11-08T21:27:28.666Z,99.50
2017-11-08T21:29:56.098Z,99.50
2017-11-08T21:32:24.314Z,99.60
2017-11-08T21:34:51.743Z,99.50
2017-11-08T21:37:19.963Z,99.50
2017-11-08T21:39:49.425Z,99.50
2017-11-08T21:42:16.869Z,99.40
2017-11-08T21:44:45.085Z,99.40
2017-11-08T21:47:12.516Z,99.40
2017-11-08T21:49:40.718Z,99.40
2017-11-08T21:52:08.159Z,99.40
2017-11-08T21:54:35.604Z,99.40
2017-11-08T21:57:03.807Z,99.50
2017-11-08T21:59:31.261Z,99.50
2017-11-08T22:01:59.013Z,99.50
2017-11-08T22:04:26.455Z,99.40
2017-11-08T22:06:54.647Z,99.50
2017-11-08T22:09:22.087Z,99.50
2017-11-08T22:11:50.325Z,99.40
2017-11-08T22:14:17.766Z,99.40
2017-11-08T22:16:45.207Z,99.30
2017-11-08T22:19:12.653Z,99.30
2017-11-08T22:21:40.082Z,99.40
2017-11-08T22:24:07.523Z,99.30
2017-11-08T22:26:34.995Z,99.20
2017-11-08T22:29:03.212Z,99.50
2017-11-08T22:31:30.771Z,99.40
2017-11-08T22:33:58.239Z,99.50
2017-11-08T22:36:25.685Z,99.70
2017-11-08T22:38:53.126Z,99.70
2017-11-08T22:41:20.605Z,99.70
2017-11-08T22:43:48.068Z,99.60
2017-11-08T22:46:15.502Z,99.60
2017-11-08T22:48:42.939Z,99.50
2017-11-08T22:51:11.169Z,99.40
2017-11-08T22:53:38.607Z,99.40
2017-11-08T22:56:06.046Z,99.50
2017-11-08T22:58:33.487Z,99.40
2017-11-08T23:01:00.921Z,99.50
2017-11-08T23:03:28.362Z,99.50
2017-11-08T23:05:58.935Z,99.50
2017-11-08T23:08:27.131Z,99.50
2017-11-08T23:10:54.579Z,99.50
2017-11-08T23:13:22.006Z,99.40
2017-11-08T23:15:50.209Z,99.40
2017-11-08T23:18:17.977Z,99.40
2017-11-08T23:20:45.446Z,99.40
2017-11-08T23:23:12.868Z,99.40
2017-11-08T23:25:41.099Z,99.50
2017-11-08T23:28:08.549Z,99.40
2017-11-08T23:30:35.992Z,99.40
2017-11-08T23:33:03.431Z,99.30
2017-11-08T23:35:30.883Z,99.20
2017-11-08T23:37:59.081Z,99.40
2017-11-08T23:40:26.534Z,99.40
2017-11-08T23:43:00.461Z,99.40
2017-11-08T23:45:27.914Z,99.50
2017-11-08T23:47:55.350Z,99.50
2017-11-08T23:50:22.898Z,99.50
2017-11-08T23:52:50.326Z,99.60
2017-11-08T23:55:19.658Z,99.50
2017-11-08T23:57:47.098Z,99.50
